sensor_id;sensor_type;location;lat;lon;timestamp;temperature;humidity
62555;DHT22;48610;52.144;8.624;2024-02-21T00:02:37;10.00;99.90
62555;DHT22;48610;52.144;8.624;2024-02-21T00:05:37;10.00;99.90
62555;DHT22;48610;52.144;8.624;2024-02-21T00:08:38;10.10;99.90
62555;DHT22;48610;52.144;8.624;2024-02-21T00:11:38;10.10;99.90
62555;DHT22;48610;52.144;8.624;2024-02-21T00:14:39;10.10;99.90
62555;DHT22;48610;52.144;8.624;2024-02-21T00:17:40;10.00;99.90
62555;DHT22;48610;52.144;8.624;2024-02-21T00:20:41;10.10;99.90
62555;DHT22;48610;52.144;8.624;2024-02-21T00:23:42;10.00;99.90
62555;DHT22;48610;52.144;8.624;2024-02-21T00:26:42;9.90;99.90
62555;DHT22;48610;52.144;8.624;2024-02-21T00:29:43;10.00;99.90
62555;DHT22;48610;52.144;8.624;2024-02-21T00:32:43;10.10;99.90
62555;DHT22;48610;52.144;8.624;2024-02-21T00:35:44;10.10;99.90
62555;DHT22;48610;52.144;8.624;2024-02-21T00:38:44;10.10;99.90
62555;DHT22;48610;52.144;8.624;2024-02-21T00:41:45;9.90;99.90
62555;DHT22;48610;52.144;8.624;2024-02-21T00:44:45;10.00;99.90
62555;DHT22;48610;52.144;8.624;2024-02-21T00:47:46;10.10;99.90
62555;DHT22;48610;52.144;8.624;2024-02-21T00:50:46;10.00;99.90
62555;DHT22;48610;52.144;8.624;2024-02-21T00:53:47;9.80;99.90
62555;DHT22;48610;52.144;8.624;2024-02-21T00:56:48;9.80;99.90
62555;DHT22;48610;52.144;8.624;2024-02-21T00:59:48;10.00;99.90
62555;DHT22;48610;52.144;8.624;2024-02-21T01:02:49;10.00;99.90
62555;DHT22;48610;52.144;8.624;2024-02-21T01:05:49;9.90;99.90
62555;DHT22;48610;52.144;8.624;2024-02-21T01:08:50;10.00;99.90
62555;DHT22;48610;52.144;8.624;2024-02-21T01:11:50;10.20;99.90
62555;DHT22;48610;52.144;8.624;2024-02-21T01:14:51;10.30;99.90
62555;DHT22;48610;52.144;8.624;2024-02-21T01:17:52;10.40;99.90
62555;DHT22;48610;52.144;8.624;2024-02-21T01:20:55;10.30;99.90
62555;DHT22;48610;52.144;8.624;2024-02-21T01:23:55;10.20;99.90
62555;DHT22;48610;52.144;8.624;2024-02-21T01:26:56;10.20;99.90
62555;DHT22;48610;52.144;8.624;2024-02-21T01:29:56;10.10;99.90
62555;DHT22;48610;52.144;8.624;2024-02-21T01:32:57;10.30;99.90
62555;DHT22;48610;52.144;8.624;2024-02-21T01:35:57;10.30;99.90
62555;DHT22;48610;52.144;8.624;2024-02-21T01:38:58;10.20;99.90
62555;DHT22;48610;52.144;8.624;2024-02-21T01:41:58;10.40;99.90
62555;DHT22;48610;52.144;8.624;2024-02-21T01:44:59;10.40;99.90
62555;DHT22;48610;52.144;8.624;2024-02-21T01:48:00;10.50;99.90
62555;DHT22;48610;52.144;8.624;2024-02-21T01:51:00;10.20;99.90
62555;DHT22;48610;52.144;8.624;2024-02-21T01:54:02;10.20;99.90
62555;DHT22;48610;52.144;8.624;2024-02-21T01:57:03;10.20;99.90
62555;DHT22;48610;52.144;8.624;2024-02-21T02:00:04;10.30;99.90
62555;DHT22;48610;52.144;8.624;2024-02-21T02:03:05;10.20;99.90
62555;DHT22;48610;52.144;8.624;2024-02-21T02:06:07;10.00;99.90
62555;DHT22;48610;52.144;8.624;2024-02-21T02:09:07;10.00;99.90
62555;DHT22;48610;52.144;8.624;2024-02-21T02:12:08;9.90;99.90
62555;DHT22;48610;52.144;8.624;2024-02-21T02:15:09;9.90;99.90
62555;DHT22;48610;52.144;8.624;2024-02-21T02:18:10;10.20;99.90
62555;DHT22;48610;52.144;8.624;2024-02-21T02:21:21;10.10;99.90
62555;DHT22;48610;52.144;8.624;2024-02-21T02:24:24;10.00;99.90
62555;DHT22;48610;52.144;8.624;2024-02-21T02:27:26;10.20;99.90
62555;DHT22;48610;52.144;8.624;2024-02-21T02:30:26;10.10;99.90
62555;DHT22;48610;52.144;8.624;2024-02-21T02:33:27;10.20;99.90
62555;DHT22;48610;52.144;8.624;2024-02-21T02:36:27;10.20;99.90
62555;DHT22;48610;52.144;8.624;2024-02-21T02:39:28;10.20;99.90
62555;DHT22;48610;52.144;8.624;2024-02-21T02:42:29;10.20;99.90
62555;DHT22;48610;52.144;8.624;2024-02-21T02:45:29;10.00;99.90
62555;DHT22;48610;52.144;8.624;2024-02-21T02:48:30;10.00;99.90
62555;DHT22;48610;52.144;8.624;2024-02-21T02:51:31;10.00;99.90
62555;DHT22;48610;52.144;8.624;2024-02-21T02:54:31;10.10;99.90
62555;DHT22;48610;52.144;8.624;2024-02-21T02:57:32;10.00;99.90
62555;DHT22;48610;52.144;8.624;2024-02-21T03:00:33;10.10;99.90
62555;DHT22;48610;52.144;8.624;2024-02-21T03:03:36;9.90;99.90
62555;DHT22;48610;52.144;8.624;2024-02-21T03:06:37;9.80;99.90
62555;DHT22;48610;52.144;8.624;2024-02-21T03:09:38;9.70;99.90
62555;DHT22;48610;52.144;8.624;2024-02-21T03:12:38;9.80;99.90
62555;DHT22;48610;52.144;8.624;2024-02-21T03:15:39;9.60;99.90
62555;DHT22;48610;52.144;8.624;2024-02-21T03:18:40;9.60;99.90
62555;DHT22;48610;52.144;8.624;2024-02-21T03:21:42;9.70;99.90
62555;DHT22;48610;52.144;8.624;2024-02-21T03:24:43;9.80;99.90
62555;DHT22;48610;52.144;8.624;2024-02-21T03:27:44;9.80;99.90
62555;DHT22;48610;52.144;8.624;2024-02-21T03:30:44;9.90;99.90
62555;DHT22;48610;52.144;8.624;2024-02-21T03:33:45;10.00;99.90
62555;DHT22;48610;52.144;8.624;2024-02-21T03:36:45;9.90;99.90
62555;DHT22;48610;52.144;8.624;2024-02-21T03:39:46;9.90;99.90
62555;DHT22;48610;52.144;8.624;2024-02-21T03:42:46;9.90;99.90
62555;DHT22;48610;52.144;8.624;2024-02-21T03:45:47;10.00;99.90
62555;DHT22;48610;52.144;8.624;2024-02-21T03:48:47;9.90;99.90
62555;DHT22;48610;52.144;8.624;2024-02-21T03:51:48;9.90;99.90
62555;DHT22;48610;52.144;8.624;2024-02-21T03:54:48;9.90;99.90
62555;DHT22;48610;52.144;8.624;2024-02-21T03:57:49;9.70;99.90
62555;DHT22;48610;52.144;8.624;2024-02-21T04:00:50;9.80;99.90
62555;DHT22;48610;52.144;8.624;2024-02-21T04:03:50;9.90;99.90
62555;DHT22;48610;52.144;8.624;2024-02-21T04:06:51;10.00;99.90
62555;DHT22;48610;52.144;8.624;2024-02-21T04:09:52;10.10;99.90
62555;DHT22;48610;52.144;8.624;2024-02-21T04:12:52;10.00;99.90
62555;DHT22;48610;52.144;8.624;2024-02-21T04:15:53;10.00;99.90
62555;DHT22;48610;52.144;8.624;2024-02-21T04:18:54;9.90;99.90
62555;DHT22;48610;52.144;8.624;2024-02-21T04:21:54;9.90;99.90
62555;DHT22;48610;52.144;8.624;2024-02-21T04:24:55;9.80;99.90
62555;DHT22;48610;52.144;8.624;2024-02-21T04:27:55;9.90;99.90
62555;DHT22;48610;52.144;8.624;2024-02-21T04:30:56;10.00;99.90
62555;DHT22;48610;52.144;8.624;2024-02-21T04:33:56;9.90;99.90
62555;DHT22;48610;52.144;8.624;2024-02-21T04:36:57;10.00;99.90
62555;DHT22;48610;52.144;8.624;2024-02-21T04:39:59;10.00;99.90
62555;DHT22;48610;52.144;8.624;2024-02-21T04:42:59;10.00;99.90
62555;DHT22;48610;52.144;8.624;2024-02-21T04:46:00;10.00;99.90
62555;DHT22;48610;52.144;8.624;2024-02-21T04:49:00;9.80;99.90
62555;DHT22;48610;52.144;8.624;2024-02-21T04:52:01;9.90;99.90
62555;DHT22;48610;52.144;8.624;2024-02-21T04:55:01;9.80;99.90
62555;DHT22;48610;52.144;8.624;2024-02-21T04:58:02;9.70;99.90
62555;DHT22;48610;52.144;8.624;2024-02-21T05:01:03;9.70;99.90
62555;DHT22;48610;52.144;8.624;2024-02-21T05:04:03;9.70;99.90
62555;DHT22;48610;52.144;8.624;2024-02-21T05:07:04;9.90;99.90
62555;DHT22;48610;52.144;8.624;2024-02-21T05:10:07;9.70;99.90
62555;DHT22;48610;52.144;8.624;2024-02-21T05:13:07;9.50;99.90
62555;DHT22;48610;52.144;8.624;2024-02-21T05:16:09;9.60;99.90
62555;DHT22;48610;52.144;8.624;2024-02-21T05:19:09;9.60;99.90
62555;DHT22;48610;52.144;8.624;2024-02-21T05:22:11;9.60;99.90
62555;DHT22;48610;52.144;8.624;2024-02-21T05:25:11;9.50;99.90
62555;DHT22;48610;52.144;8.624;2024-02-21T05:28:12;9.50;99.90
62555;DHT22;48610;52.144;8.624;2024-02-21T05:31:12;9.50;99.90
62555;DHT22;48610;52.144;8.624;2024-02-21T05:34:14;9.60;99.90
62555;DHT22;48610;52.144;8.624;2024-02-21T05:37:15;9.50;99.90
62555;DHT22;48610;52.144;8.624;2024-02-21T05:40:15;9.40;99.90
62555;DHT22;48610;52.144;8.624;2024-02-21T05:43:16;9.40;99.90
62555;DHT22;48610;52.144;8.624;2024-02-21T05:46:19;9.30;99.90
62555;DHT22;48610;52.144;8.624;2024-02-21T05:49:20;9.20;99.90
62555;DHT22;48610;52.144;8.624;2024-02-21T05:52:20;9.30;99.90
62555;DHT22;48610;52.144;8.624;2024-02-21T05:55:21;9.40;99.90
62555;DHT22;48610;52.144;8.624;2024-02-21T05:58:22;9.40;99.90
62555;DHT22;48610;52.144;8.624;2024-02-21T06:01:22;9.60;99.90
62555;DHT22;48610;52.144;8.624;2024-02-21T06:04:23;9.60;99.90
62555;DHT22;48610;52.144;8.624;2024-02-21T06:07:23;9.40;99.90
62555;DHT22;48610;52.144;8.624;2024-02-21T06:10:24;9.40;99.90
62555;DHT22;48610;52.144;8.624;2024-02-21T06:13:24;9.40;99.90
62555;DHT22;48610;52.144;8.624;2024-02-21T06:16:25;9.50;99.90
62555;DHT22;48610;52.144;8.624;2024-02-21T06:19:25;9.50;99.90
62555;DHT22;48610;52.144;8.624;2024-02-21T06:22:26;9.40;99.90
62555;DHT22;48610;52.144;8.624;2024-02-21T06:25:26;9.20;99.90
62555;DHT22;48610;52.144;8.624;2024-02-21T06:28:27;9.20;99.90
62555;DHT22;48610;52.144;8.624;2024-02-21T06:31:28;9.20;99.90
62555;DHT22;48610;52.144;8.624;2024-02-21T06:34:29;9.40;99.90
62555;DHT22;48610;52.144;8.624;2024-02-21T06:37:29;9.50;99.90
62555;DHT22;48610;52.144;8.624;2024-02-21T06:40:30;9.50;99.90
62555;DHT22;48610;52.144;8.624;2024-02-21T06:43:38;9.40;99.90
62555;DHT22;48610;52.144;8.624;2024-02-21T06:46:39;9.30;99.90
62555;DHT22;48610;52.144;8.624;2024-02-21T06:49:39;9.40;99.90
62555;DHT22;48610;52.144;8.624;2024-02-21T06:52:40;9.50;99.90
62555;DHT22;48610;52.144;8.624;2024-02-21T06:55:40;9.70;99.90
62555;DHT22;48610;52.144;8.624;2024-02-21T06:58:41;9.70;99.90
62555;DHT22;48610;52.144;8.624;2024-02-21T07:01:47;9.70;99.90
62555;DHT22;48610;52.144;8.624;2024-02-21T07:04:48;9.70;99.90
62555;DHT22;48610;52.144;8.624;2024-02-21T07:07:49;9.80;99.90
62555;DHT22;48610;52.144;8.624;2024-02-21T07:10:49;9.70;99.90
62555;DHT22;48610;52.144;8.624;2024-02-21T07:13:50;9.80;99.90
62555;DHT22;48610;52.144;8.624;2024-02-21T07:16:51;9.90;99.90
62555;DHT22;48610;52.144;8.624;2024-02-21T07:19:52;9.90;99.90
62555;DHT22;48610;52.144;8.624;2024-02-21T07:22:52;10.00;99.90
62555;DHT22;48610;52.144;8.624;2024-02-21T07:25:53;10.10;99.90
62555;DHT22;48610;52.144;8.624;2024-02-21T07:28:53;10.20;99.90
62555;DHT22;48610;52.144;8.624;2024-02-21T07:31:54;10.20;99.90
62555;DHT22;48610;52.144;8.624;2024-02-21T07:34:54;10.20;99.90
62555;DHT22;48610;52.144;8.624;2024-02-21T07:37:55;10.10;99.90
62555;DHT22;48610;52.144;8.624;2024-02-21T07:40:55;10.10;99.90
62555;DHT22;48610;52.144;8.624;2024-02-21T07:43:56;10.20;99.90
62555;DHT22;48610;52.144;8.624;2024-02-21T07:46:57;10.00;99.90
62555;DHT22;48610;52.144;8.624;2024-02-21T07:49:57;10.20;99.90
62555;DHT22;48610;52.144;8.624;2024-02-21T07:52:58;10.30;99.90
62555;DHT22;48610;52.144;8.624;2024-02-21T07:55:59;10.50;99.90
62555;DHT22;48610;52.144;8.624;2024-02-21T07:59:00;10.60;99.90
62555;DHT22;48610;52.144;8.624;2024-02-21T08:02:00;10.60;99.90
62555;DHT22;48610;52.144;8.624;2024-02-21T08:05:01;10.50;99.90
62555;DHT22;48610;52.144;8.624;2024-02-21T08:08:03;10.40;99.90
62555;DHT22;48610;52.144;8.624;2024-02-21T08:11:04;10.40;99.90
62555;DHT22;48610;52.144;8.624;2024-02-21T08:14:05;10.20;99.90
62555;DHT22;48610;52.144;8.624;2024-02-21T08:17:05;10.20;99.90
62555;DHT22;48610;52.144;8.624;2024-02-21T08:20:06;10.20;99.90
62555;DHT22;48610;52.144;8.624;2024-02-21T08:23:07;10.30;99.90
62555;DHT22;48610;52.144;8.624;2024-02-21T08:26:08;10.40;99.90
62555;DHT22;48610;52.144;8.624;2024-02-21T08:29:08;10.40;99.90
62555;DHT22;48610;52.144;8.624;2024-02-21T08:32:09;10.40;99.90
62555;DHT22;48610;52.144;8.624;2024-02-21T08:35:09;10.40;99.90
62555;DHT22;48610;52.144;8.624;2024-02-21T08:38:10;10.40;99.90
62555;DHT22;48610;52.144;8.624;2024-02-21T08:41:10;10.50;99.90
62555;DHT22;48610;52.144;8.624;2024-02-21T08:44:11;10.40;99.90
62555;DHT22;48610;52.144;8.624;2024-02-21T08:47:12;10.60;99.90
62555;DHT22;48610;52.144;8.624;2024-02-21T08:50:12;10.60;99.90
62555;DHT22;48610;52.144;8.624;2024-02-21T08:53:13;10.60;99.90
62555;DHT22;48610;52.144;8.624;2024-02-21T08:56:14;10.60;99.90
62555;DHT22;48610;52.144;8.624;2024-02-21T08:59:15;10.60;99.90
62555;DHT22;48610;52.144;8.624;2024-02-21T09:02:16;10.50;99.90
62555;DHT22;48610;52.144;8.624;2024-02-21T09:05:16;10.70;99.90
62555;DHT22;48610;52.144;8.624;2024-02-21T09:08:17;10.70;99.90
62555;DHT22;48610;52.144;8.624;2024-02-21T09:11:18;10.90;99.90
62555;DHT22;48610;52.144;8.624;2024-02-21T09:14:19;10.90;99.90
62555;DHT22;48610;52.144;8.624;2024-02-21T09:17:19;10.80;99.90
62555;DHT22;48610;52.144;8.624;2024-02-21T09:20:23;10.90;99.90
62555;DHT22;48610;52.144;8.624;2024-02-21T09:23:24;11.10;99.90
62555;DHT22;48610;52.144;8.624;2024-02-21T09:26:25;11.00;99.90
62555;DHT22;48610;52.144;8.624;2024-02-21T09:29:26;11.10;99.90
62555;DHT22;48610;52.144;8.624;2024-02-21T09:32:26;10.90;99.90
62555;DHT22;48610;52.144;8.624;2024-02-21T09:35:27;11.00;99.90
62555;DHT22;48610;52.144;8.624;2024-02-21T09:38:28;11.10;99.90
62555;DHT22;48610;52.144;8.624;2024-02-21T09:41:28;11.20;99.90
62555;DHT22;48610;52.144;8.624;2024-02-21T09:44:35;11.20;99.90
62555;DHT22;48610;52.144;8.624;2024-02-21T09:51:10;11.20;99.90
62555;DHT22;48610;52.144;8.624;2024-02-21T09:54:12;11.20;99.90
62555;DHT22;48610;52.144;8.624;2024-02-21T09:57:13;11.10;99.90
62555;DHT22;48610;52.144;8.624;2024-02-21T10:00:14;11.20;99.90
62555;DHT22;48610;52.144;8.624;2024-02-21T10:03:21;11.10;99.90
62555;DHT22;48610;52.144;8.624;2024-02-21T10:06:22;11.10;99.90
62555;DHT22;48610;52.144;8.624;2024-02-21T10:09:24;11.30;99.90
62555;DHT22;48610;52.144;8.624;2024-02-21T10:12:27;11.40;99.90
62555;DHT22;48610;52.144;8.624;2024-02-21T10:15:28;11.40;99.90
62555;DHT22;48610;52.144;8.624;2024-02-21T10:18:29;11.40;99.90
62555;DHT22;48610;52.144;8.624;2024-02-21T10:21:29;11.20;99.90
62555;DHT22;48610;52.144;8.624;2024-02-21T10:24:34;11.00;99.90
62555;DHT22;48610;52.144;8.624;2024-02-21T10:27:35;11.00;99.90
62555;DHT22;48610;52.144;8.624;2024-02-21T10:30:36;11.10;99.90
62555;DHT22;48610;52.144;8.624;2024-02-21T10:33:37;11.20;99.90
62555;DHT22;48610;52.144;8.624;2024-02-21T10:36:38;11.10;99.90
62555;DHT22;48610;52.144;8.624;2024-02-21T10:39:40;11.20;99.90
62555;DHT22;48610;52.144;8.624;2024-02-21T10:42:42;11.50;99.90
62555;DHT22;48610;52.144;8.624;2024-02-21T10:45:43;11.50;99.90
62555;DHT22;48610;52.144;8.624;2024-02-21T10:48:44;11.60;99.90
62555;DHT22;48610;52.144;8.624;2024-02-21T10:51:45;11.60;99.90
62555;DHT22;48610;52.144;8.624;2024-02-21T10:58:18;11.00;99.90
62555;DHT22;48610;52.144;8.624;2024-02-21T11:01:20;11.00;99.90
62555;DHT22;48610;52.144;8.624;2024-02-21T11:04:21;11.20;99.90
62555;DHT22;48610;52.144;8.624;2024-02-21T11:07:22;11.20;99.90
62555;DHT22;48610;52.144;8.624;2024-02-21T11:10:24;11.30;99.90
62555;DHT22;48610;52.144;8.624;2024-02-21T11:13:35;11.30;99.90
62555;DHT22;48610;52.144;8.624;2024-02-21T11:16:40;11.20;99.90
62555;DHT22;48610;52.144;8.624;2024-02-21T11:19:41;11.30;99.90
62555;DHT22;48610;52.144;8.624;2024-02-21T11:22:42;11.40;99.90
62555;DHT22;48610;52.144;8.624;2024-02-21T11:25:43;11.20;99.90
62555;DHT22;48610;52.144;8.624;2024-02-21T11:28:44;11.20;99.90
62555;DHT22;48610;52.144;8.624;2024-02-21T11:31:45;11.30;99.90
62555;DHT22;48610;52.144;8.624;2024-02-21T11:35:02;11.40;99.90
62555;DHT22;48610;52.144;8.624;2024-02-21T11:38:12;11.30;99.90
62555;DHT22;48610;52.144;8.624;2024-02-21T11:41:16;11.30;99.90
62555;DHT22;48610;52.144;8.624;2024-02-21T11:44:17;11.30;99.90
62555;DHT22;48610;52.144;8.624;2024-02-21T11:47:17;11.20;99.90
62555;DHT22;48610;52.144;8.624;2024-02-21T11:50:18;11.50;99.90
62555;DHT22;48610;52.144;8.624;2024-02-21T11:53:20;11.50;99.90
62555;DHT22;48610;52.144;8.624;2024-02-21T11:56:21;11.30;99.90
62555;DHT22;48610;52.144;8.624;2024-02-21T11:59:23;11.40;99.90
62555;DHT22;48610;52.144;8.624;2024-02-21T12:02:23;11.20;99.90
62555;DHT22;48610;52.144;8.624;2024-02-21T12:05:25;11.20;99.90
62555;DHT22;48610;52.144;8.624;2024-02-21T12:08:42;11.10;99.90
62555;DHT22;48610;52.144;8.624;2024-02-21T12:11:44;11.20;99.90
62555;DHT22;48610;52.144;8.624;2024-02-21T12:14:44;11.20;99.90
62555;DHT22;48610;52.144;8.624;2024-02-21T12:17:45;11.20;99.90
62555;DHT22;48610;52.144;8.624;2024-02-21T12:20:48;11.10;99.90
62555;DHT22;48610;52.144;8.624;2024-02-21T12:23:48;10.80;99.90
62555;DHT22;48610;52.144;8.624;2024-02-21T12:26:50;10.90;99.90
62555;DHT22;48610;52.144;8.624;2024-02-21T12:29:50;11.00;99.90
62555;DHT22;48610;52.144;8.624;2024-02-21T12:32:51;10.90;99.90
62555;DHT22;48610;52.144;8.624;2024-02-21T12:35:51;10.90;99.90
62555;DHT22;48610;52.144;8.624;2024-02-21T12:38:55;10.90;99.90
62555;DHT22;48610;52.144;8.624;2024-02-21T12:41:56;11.00;99.90
62555;DHT22;48610;52.144;8.624;2024-02-21T12:44:57;11.00;99.90
62555;DHT22;48610;52.144;8.624;2024-02-21T12:47:57;11.00;99.90
62555;DHT22;48610;52.144;8.624;2024-02-21T12:50:58;11.00;99.90
62555;DHT22;48610;52.144;8.624;2024-02-21T12:53:59;11.00;99.90
62555;DHT22;48610;52.144;8.624;2024-02-21T12:56:59;11.00;99.90
62555;DHT22;48610;52.144;8.624;2024-02-21T13:00:03;11.20;99.90
62555;DHT22;48610;52.144;8.624;2024-02-21T13:03:04;11.20;99.90
62555;DHT22;48610;52.144;8.624;2024-02-21T13:06:05;11.20;99.90
62555;DHT22;48610;52.144;8.624;2024-02-21T13:09:06;11.20;99.90
62555;DHT22;48610;52.144;8.624;2024-02-21T13:12:11;11.00;99.90
62555;DHT22;48610;52.144;8.624;2024-02-21T13:15:12;10.80;99.90
62555;DHT22;48610;52.144;8.624;2024-02-21T13:18:13;10.70;99.90
62555;DHT22;48610;52.144;8.624;2024-02-21T13:21:13;10.90;99.90
62555;DHT22;48610;52.144;8.624;2024-02-21T13:24:14;10.80;99.90
62555;DHT22;48610;52.144;8.624;2024-02-21T13:27:14;10.80;99.90
62555;DHT22;48610;52.144;8.624;2024-02-21T13:30:15;10.80;99.90
62555;DHT22;48610;52.144;8.624;2024-02-21T13:33:16;10.70;99.90
62555;DHT22;48610;52.144;8.624;2024-02-21T13:36:16;10.70;99.90
62555;DHT22;48610;52.144;8.624;2024-02-21T13:39:17;10.70;99.90
62555;DHT22;48610;52.144;8.624;2024-02-21T13:42:20;10.60;99.90
62555;DHT22;48610;52.144;8.624;2024-02-21T13:45:20;10.40;99.90
62555;DHT22;48610;52.144;8.624;2024-02-21T13:48:21;10.50;99.90
62555;DHT22;48610;52.144;8.624;2024-02-21T13:51:21;10.50;99.90
62555;DHT22;48610;52.144;8.624;2024-02-21T13:54:22;10.60;99.90
62555;DHT22;48610;52.144;8.624;2024-02-21T13:57:22;10.70;99.90
62555;DHT22;48610;52.144;8.624;2024-02-21T14:00:23;10.70;99.90
62555;DHT22;48610;52.144;8.624;2024-02-21T14:03:23;10.50;99.90
62555;DHT22;48610;52.144;8.624;2024-02-21T14:06:26;10.40;99.90
62555;DHT22;48610;52.144;8.624;2024-02-21T14:09:27;10.40;99.90
62555;DHT22;48610;52.144;8.624;2024-02-21T14:12:27;10.30;99.90
62555;DHT22;48610;52.144;8.624;2024-02-21T14:15:28;10.30;99.90
62555;DHT22;48610;52.144;8.624;2024-02-21T14:18:29;10.30;99.90
62555;DHT22;48610;52.144;8.624;2024-02-21T14:21:29;10.60;99.90
62555;DHT22;48610;52.144;8.624;2024-02-21T14:24:30;10.60;99.90
62555;DHT22;48610;52.144;8.624;2024-02-21T14:27:31;10.50;99.90
62555;DHT22;48610;52.144;8.624;2024-02-21T14:30:32;10.60;99.90
62555;DHT22;48610;52.144;8.624;2024-02-21T14:33:33;10.70;99.90
62555;DHT22;48610;52.144;8.624;2024-02-21T14:36:34;10.70;99.90
62555;DHT22;48610;52.144;8.624;2024-02-21T14:39:34;10.80;99.90
62555;DHT22;48610;52.144;8.624;2024-02-21T14:42:35;10.70;99.90
62555;DHT22;48610;52.144;8.624;2024-02-21T14:45:36;10.80;99.90
62555;DHT22;48610;52.144;8.624;2024-02-21T14:48:38;10.80;99.90
62555;DHT22;48610;52.144;8.624;2024-02-21T14:51:38;10.90;99.90
62555;DHT22;48610;52.144;8.624;2024-02-21T14:54:39;11.00;99.90
62555;DHT22;48610;52.144;8.624;2024-02-21T14:57:43;10.90;99.90
62555;DHT22;48610;52.144;8.624;2024-02-21T15:00:45;10.80;99.90
62555;DHT22;48610;52.144;8.624;2024-02-21T15:03:47;10.80;99.90
62555;DHT22;48610;52.144;8.624;2024-02-21T15:06:47;10.70;99.90
62555;DHT22;48610;52.144;8.624;2024-02-21T15:09:49;10.80;99.90
62555;DHT22;48610;52.144;8.624;2024-02-21T15:12:49;10.80;99.90
62555;DHT22;48610;52.144;8.624;2024-02-21T15:15:50;10.60;99.90
62555;DHT22;48610;52.144;8.624;2024-02-21T15:18:51;10.50;99.90
62555;DHT22;48610;52.144;8.624;2024-02-21T15:21:52;10.60;99.90
62555;DHT22;48610;52.144;8.624;2024-02-21T15:24:53;10.60;99.90
62555;DHT22;48610;52.144;8.624;2024-02-21T15:27:54;10.60;99.90
62555;DHT22;48610;52.144;8.624;2024-02-21T15:30:55;10.50;99.90
62555;DHT22;48610;52.144;8.624;2024-02-21T15:33:55;10.50;99.90
62555;DHT22;48610;52.144;8.624;2024-02-21T15:36:56;10.40;99.90
62555;DHT22;48610;52.144;8.624;2024-02-21T15:39:57;10.40;99.90
62555;DHT22;48610;52.144;8.624;2024-02-21T15:42:57;10.40;99.90
62555;DHT22;48610;52.144;8.624;2024-02-21T15:45:58;10.50;99.90
62555;DHT22;48610;52.144;8.624;2024-02-21T15:48:58;10.50;99.90
62555;DHT22;48610;52.144;8.624;2024-02-21T15:51:59;10.60;99.90
62555;DHT22;48610;52.144;8.624;2024-02-21T15:55:00;10.60;99.90
62555;DHT22;48610;52.144;8.624;2024-02-21T15:58:00;10.60;99.90
62555;DHT22;48610;52.144;8.624;2024-02-21T16:01:04;10.60;99.90
62555;DHT22;48610;52.144;8.624;2024-02-21T16:04:05;10.60;99.90
62555;DHT22;48610;52.144;8.624;2024-02-21T16:07:06;10.60;99.90
62555;DHT22;48610;52.144;8.624;2024-02-21T16:10:07;10.50;99.90
62555;DHT22;48610;52.144;8.624;2024-02-21T16:13:07;10.50;99.90
62555;DHT22;48610;52.144;8.624;2024-02-21T16:16:10;10.50;99.90
62555;DHT22;48610;52.144;8.624;2024-02-21T16:19:11;10.40;99.90
62555;DHT22;48610;52.144;8.624;2024-02-21T16:22:12;10.30;99.90
62555;DHT22;48610;52.144;8.624;2024-02-21T16:25:13;10.30;99.90
62555;DHT22;48610;52.144;8.624;2024-02-21T16:28:14;10.30;99.90
62555;DHT22;48610;52.144;8.624;2024-02-21T16:31:14;10.30;99.90
62555;DHT22;48610;52.144;8.624;2024-02-21T16:34:16;10.40;99.90
62555;DHT22;48610;52.144;8.624;2024-02-21T16:37:16;10.30;99.90
62555;DHT22;48610;52.144;8.624;2024-02-21T16:40:17;10.30;99.90
62555;DHT22;48610;52.144;8.624;2024-02-21T16:43:19;10.30;99.90
62555;DHT22;48610;52.144;8.624;2024-02-21T16:46:19;10.40;99.90
62555;DHT22;48610;52.144;8.624;2024-02-21T16:49:21;10.50;99.90
62555;DHT22;48610;52.144;8.624;2024-02-21T16:52:22;10.40;99.90
62555;DHT22;48610;52.144;8.624;2024-02-21T16:55:23;10.30;99.90
62555;DHT22;48610;52.144;8.624;2024-02-21T16:58:23;10.30;99.90
62555;DHT22;48610;52.144;8.624;2024-02-21T17:01:24;10.30;99.90
62555;DHT22;48610;52.144;8.624;2024-02-21T17:04:24;10.30;99.90
62555;DHT22;48610;52.144;8.624;2024-02-21T17:07:25;10.30;99.90
62555;DHT22;48610;52.144;8.624;2024-02-21T17:10:25;10.30;99.90
62555;DHT22;48610;52.144;8.624;2024-02-21T17:13:26;10.20;99.90
62555;DHT22;48610;52.144;8.624;2024-02-21T17:16:27;10.20;99.90
62555;DHT22;48610;52.144;8.624;2024-02-21T17:19:27;10.20;99.90
62555;DHT22;48610;52.144;8.624;2024-02-21T17:22:28;10.20;99.90
62555;DHT22;48610;52.144;8.624;2024-02-21T17:25:28;10.30;99.90
62555;DHT22;48610;52.144;8.624;2024-02-21T17:28:30;10.20;99.90
62555;DHT22;48610;52.144;8.624;2024-02-21T17:31:31;10.20;99.90
62555;DHT22;48610;52.144;8.624;2024-02-21T17:34:32;10.30;99.90
62555;DHT22;48610;52.144;8.624;2024-02-21T17:37:32;10.30;99.90
62555;DHT22;48610;52.144;8.624;2024-02-21T17:40:36;10.30;99.90
62555;DHT22;48610;52.144;8.624;2024-02-21T17:43:36;10.30;99.90
62555;DHT22;48610;52.144;8.624;2024-02-21T17:46:42;10.40;99.90
62555;DHT22;48610;52.144;8.624;2024-02-21T17:49:43;10.30;99.90
62555;DHT22;48610;52.144;8.624;2024-02-21T17:52:44;10.40;99.90
62555;DHT22;48610;52.144;8.624;2024-02-21T17:55:44;10.40;99.90
62555;DHT22;48610;52.144;8.624;2024-02-21T17:58:45;10.40;99.90
62555;DHT22;48610;52.144;8.624;2024-02-21T18:01:45;10.50;99.90
62555;DHT22;48610;52.144;8.624;2024-02-21T18:04:46;10.50;99.90
62555;DHT22;48610;52.144;8.624;2024-02-21T18:07:47;10.50;99.90
62555;DHT22;48610;52.144;8.624;2024-02-21T18:10:48;10.50;99.90
62555;DHT22;48610;52.144;8.624;2024-02-21T18:13:49;10.50;99.90
62555;DHT22;48610;52.144;8.624;2024-02-21T18:16:49;10.50;99.90
62555;DHT22;48610;52.144;8.624;2024-02-21T18:19:50;10.60;99.90
62555;DHT22;48610;52.144;8.624;2024-02-21T18:22:50;10.50;99.90
62555;DHT22;48610;52.144;8.624;2024-02-21T18:25:51;10.60;99.90
62555;DHT22;48610;52.144;8.624;2024-02-21T18:28:53;10.50;99.90
62555;DHT22;48610;52.144;8.624;2024-02-21T18:31:53;10.60;99.90
62555;DHT22;48610;52.144;8.624;2024-02-21T18:34:54;10.60;99.90
62555;DHT22;48610;52.144;8.624;2024-02-21T18:37:55;10.50;99.90
62555;DHT22;48610;52.144;8.624;2024-02-21T18:40:56;10.50;99.90
62555;DHT22;48610;52.144;8.624;2024-02-21T18:43:56;10.60;99.90
62555;DHT22;48610;52.144;8.624;2024-02-21T18:46:57;10.50;99.90
62555;DHT22;48610;52.144;8.624;2024-02-21T18:49:57;10.50;99.90
62555;DHT22;48610;52.144;8.624;2024-02-21T18:52:58;10.50;99.90
62555;DHT22;48610;52.144;8.624;2024-02-21T18:56:00;10.50;99.90
62555;DHT22;48610;52.144;8.624;2024-02-21T18:59:01;10.40;99.90
62555;DHT22;48610;52.144;8.624;2024-02-21T19:02:01;10.30;99.90
62555;DHT22;48610;52.144;8.624;2024-02-21T19:05:02;10.20;99.90
62555;DHT22;48610;52.144;8.624;2024-02-21T19:08:03;10.20;99.90
62555;DHT22;48610;52.144;8.624;2024-02-21T19:11:03;10.10;99.90
62555;DHT22;48610;52.144;8.624;2024-02-21T19:14:04;10.00;99.90
62555;DHT22;48610;52.144;8.624;2024-02-21T19:17:05;10.10;99.90